createdAt,value
2023-04-27T00:01:12.286Z,23.90
2023-04-27T00:03:39.706Z,23.92
2023-04-27T00:06:07.469Z,23.55
2023-04-27T00:08:34.453Z,29.65
2023-04-27T00:11:01.168Z,24.17
2023-04-27T00:13:27.980Z,36.25
2023-04-27T00:15:54.690Z,32.85
2023-04-27T00:18:21.342Z,24.83
2023-04-27T00:20:48.116Z,29.85
2023-04-27T00:23:14.757Z,34.40
2023-04-27T00:25:41.817Z,28.50
2023-04-27T00:28:08.415Z,25.20
2023-04-27T00:30:35.866Z,28.65
2023-04-27T00:33:02.535Z,25.27
2023-04-27T00:35:29.312Z,28.02
2023-04-27T00:37:57.825Z,28.25
2023-04-27T00:40:25.136Z,28.42
2023-04-27T00:42:52.734Z,32.58
2023-04-27T00:45:19.378Z,28.55
2023-04-27T00:47:46.132Z,25.25
2023-04-27T00:50:12.885Z,28.77
2023-04-27T00:52:40.680Z,33.35
2023-04-27T00:55:09.415Z,28.10
2023-04-27T00:57:36.128Z,29.98
2023-04-27T01:00:07.116Z,31.05
2023-04-27T01:02:35.943Z,29.98
2023-04-27T01:05:03.573Z,26.08
2023-04-27T01:07:30.377Z,32.10
2023-04-27T01:09:58.093Z,29.25
2023-04-27T01:12:25.016Z,32.10
2023-04-27T01:14:51.730Z,32.80
2023-04-27T01:17:18.478Z,31.30
2023-04-27T01:19:45.189Z,40.00
2023-04-27T01:22:11.957Z,29.27
2023-04-27T01:24:38.667Z,34.75
2023-04-27T01:27:05.518Z,35.13
2023-04-27T01:29:32.342Z,31.17
2023-04-27T01:31:59.099Z,28.58
2023-04-27T01:34:25.912Z,33.45
2023-04-27T01:36:52.518Z,33.97
2023-04-27T01:39:21.406Z,33.47
2023-04-27T01:41:48.197Z,28.00
2023-04-27T01:44:14.992Z,33.30
2023-04-27T01:46:41.853Z,30.42
2023-04-27T01:49:08.657Z,35.55
2023-04-27T01:51:35.523Z,29.27
2023-04-27T01:54:02.272Z,36.70
2023-04-27T01:56:28.937Z,35.95
2023-04-27T01:58:55.948Z,31.27
2023-04-27T02:01:22.802Z,32.97
2023-04-27T02:03:49.635Z,35.65
2023-04-27T02:06:16.537Z,40.13
2023-04-27T02:08:43.229Z,38.85
2023-04-27T02:11:09.858Z,34.30
2023-04-27T02:13:36.528Z,32.55
2023-04-27T02:16:04.217Z,37.17
2023-04-27T02:18:32.308Z,38.47
2023-04-27T02:20:58.945Z,36.35
2023-04-27T02:23:25.568Z,35.00
2023-04-27T02:25:52.255Z,32.97
2023-04-27T02:28:18.865Z,38.40
2023-04-27T02:30:46.052Z,38.33
2023-04-27T02:33:13.028Z,34.88
2023-04-27T02:35:39.809Z,42.85
2023-04-27T02:38:06.580Z,32.58
2023-04-27T02:40:36.940Z,31.27
2023-04-27T02:43:06.149Z,27.95
2023-04-27T02:45:37.012Z,34.92
2023-04-27T02:48:05.982Z,33.95
2023-04-27T02:50:34.215Z,32.10
2023-04-27T02:53:01.497Z,27.92
2023-04-27T02:55:29.642Z,33.65
2023-04-27T02:57:56.232Z,33.53
2023-04-27T03:00:23.285Z,33.58
2023-04-27T03:02:50.046Z,33.65
2023-04-27T03:05:17.410Z,37.42
2023-04-27T03:07:44.119Z,28.35
2023-04-27T03:10:11.332Z,28.95
2023-04-27T03:12:37.966Z,33.15
2023-04-27T03:15:04.926Z,35.45
2023-04-27T03:17:31.656Z,33.42
2023-04-27T03:19:58.358Z,36.33
2023-04-27T03:22:25.546Z,36.45
2023-04-27T03:24:52.276Z,33.83
2023-04-27T03:27:18.942Z,28.58
2023-04-27T03:29:46.157Z,34.33
2023-04-27T03:32:12.774Z,36.25
2023-04-27T03:34:39.412Z,37.08
2023-04-27T03:37:06.325Z,36.63
2023-04-27T03:39:36.893Z,35.92
2023-04-27T03:42:03.986Z,38.70
2023-04-27T03:44:31.592Z,38.40
2023-04-27T03:46:58.288Z,35.08
2023-04-27T03:49:25.827Z,36.15
2023-04-27T03:51:52.622Z,42.47
2023-04-27T03:54:19.200Z,47.15
2023-04-27T03:56:46.530Z,44.22
2023-04-27T03:59:13.577Z,41.95
2023-04-27T04:01:46.915Z,42.17
2023-04-27T04:04:13.762Z,42.35
2023-04-27T04:06:42.164Z,42.70
2023-04-27T04:09:08.804Z,43.20
2023-04-27T04:11:35.747Z,37.28
2023-04-27T04:14:05.765Z,45.13
2023-04-27T04:16:33.749Z,45.25
2023-04-27T04:19:00.389Z,47.65
2023-04-27T04:21:27.014Z,45.20
2023-04-27T04:23:53.635Z,43.80
2023-04-27T04:26:20.475Z,44.10
2023-04-27T04:28:47.069Z,45.05
2023-04-27T04:31:15.605Z,54.00
2023-04-27T04:33:42.258Z,47.47
2023-04-27T04:36:09.220Z,49.95
2023-04-27T04:38:35.852Z,53.95
2023-04-27T04:41:02.594Z,53.75
2023-04-27T04:43:32.015Z,52.85
2023-04-27T04:45:58.886Z,53.53
2023-04-27T04:48:25.610Z,49.72
2023-04-27T04:50:52.667Z,47.83
2023-04-27T04:53:19.458Z,52.30
2023-04-27T04:55:46.168Z,47.20
2023-04-27T04:58:12.992Z,48.65
2023-04-27T05:00:39.920Z,46.40
2023-04-27T05:03:07.560Z,51.63
2023-04-27T05:05:34.378Z,48.60
2023-04-27T05:08:00.975Z,48.58
2023-04-27T05:10:27.582Z,46.88
2023-04-27T05:12:54.261Z,53.95
2023-04-27T05:15:21.245Z,45.72
2023-04-27T05:17:47.882Z,44.65
2023-04-27T05:20:14.700Z,43.67
2023-04-27T05:22:41.729Z,46.30
2023-04-27T05:25:08.682Z,46.42
2023-04-27T05:27:35.559Z,41.60
2023-04-27T05:30:02.454Z,43.92
2023-04-27T05:32:29.765Z,49.42
2023-04-27T05:34:56.432Z,42.85
2023-04-27T05:37:23.025Z,46.60
2023-04-27T05:39:49.633Z,44.63
2023-04-27T05:42:16.367Z,48.03
2023-04-27T05:44:43.157Z,37.67
2023-04-27T05:47:09.736Z,37.92
2023-04-27T05:49:36.983Z,39.45
2023-04-27T05:52:04.258Z,44.42
2023-04-27T05:54:30.982Z,42.10
2023-04-27T05:56:57.576Z,40.90
2023-04-27T05:59:24.237Z,43.53
2023-04-27T06:01:50.911Z,44.55
2023-04-27T06:04:17.716Z,40.90
2023-04-27T06:06:44.816Z,40.65
2023-04-27T06:09:11.657Z,39.65
2023-04-27T06:11:38.445Z,42.00
2023-04-27T06:14:05.263Z,42.90
2023-04-27T06:16:31.965Z,34.72
2023-04-27T06:18:58.599Z,33.88
2023-04-27T06:21:25.261Z,33.28
2023-04-27T06:23:51.856Z,35.70
2023-04-27T06:26:18.705Z,32.67
2023-04-27T06:28:45.366Z,33.10
2023-04-27T06:31:12.328Z,40.47
2023-04-27T06:33:38.973Z,33.55
2023-04-27T06:36:05.728Z,47.10
2023-04-27T06:38:32.372Z,48.90
2023-04-27T06:40:59.212Z,38.75
2023-04-27T06:43:25.969Z,35.63
2023-04-27T06:45:52.701Z,33.47
2023-04-27T06:48:19.564Z,32.53
2023-04-27T06:50:46.809Z,35.20
2023-04-27T06:53:13.781Z,31.42
2023-04-27T06:55:43.454Z,31.48
2023-04-27T06:58:11.121Z,33.85
2023-04-27T07:00:39.261Z,32.22
2023-04-27T07:03:06.269Z,32.45
2023-04-27T07:05:33.934Z,33.00
2023-04-27T07:08:03.927Z,33.72
2023-04-27T07:10:32.924Z,35.92
2023-04-27T07:12:59.616Z,36.85
2023-04-27T07:15:26.871Z,35.00
2023-04-27T07:17:56.472Z,40.35
2023-04-27T07:20:23.928Z,34.80
2023-04-27T07:22:50.732Z,35.00
2023-04-27T07:25:17.509Z,34.33
2023-04-27T07:27:45.154Z,36.65
2023-04-27T07:30:13.972Z,36.97
2023-04-27T07:32:44.119Z,35.95
2023-04-27T07:35:10.889Z,37.30
2023-04-27T07:37:38.213Z,36.95
2023-04-27T07:40:10.965Z,36.35
2023-04-27T07:42:39.638Z,37.10
2023-04-27T07:45:07.207Z,37.40
2023-04-27T07:47:34.045Z,38.45
2023-04-27T07:50:00.797Z,38.58
2023-04-27T07:52:27.541Z,38.63
2023-04-27T07:54:54.354Z,37.95
2023-04-27T07:57:21.053Z,36.90
2023-04-27T07:59:47.625Z,37.83
2023-04-27T08:02:19.866Z,39.10
2023-04-27T08:04:48.542Z,40.90
2023-04-27T08:07:17.643Z,40.10
2023-04-27T08:09:44.692Z,40.08
2023-04-27T08:12:11.593Z,36.55
2023-04-27T08:14:38.203Z,41.67
2023-04-27T08:17:04.927Z,39.78
2023-04-27T08:19:31.611Z,37.30
2023-04-27T08:21:58.285Z,42.88
2023-04-27T08:24:24.926Z,40.42
2023-04-27T08:26:51.589Z,41.33
2023-04-27T08:29:26.968Z,39.55
2023-04-27T08:31:56.852Z,40.50
2023-04-27T08:34:24.052Z,43.95
2023-04-27T08:36:50.885Z,40.10
2023-04-27T08:39:18.042Z,40.55
2023-04-27T08:41:44.806Z,41.80
2023-04-27T08:44:11.595Z,41.75
2023-04-27T08:46:38.987Z,41.42
2023-04-27T08:49:07.136Z,41.45
2023-04-27T08:51:34.507Z,42.83
2023-04-27T08:54:01.297Z,40.22
2023-04-27T08:56:29.890Z,40.88
2023-04-27T08:58:57.976Z,41.90
2023-04-27T09:01:26.119Z,40.22
2023-04-27T09:03:57.622Z,41.10
2023-04-27T09:06:35.642Z,39.60
2023-04-27T09:09:03.695Z,41.63
2023-04-27T09:11:35.754Z,40.70
2023-04-27T09:14:04.333Z,42.88
2023-04-27T09:16:31.803Z,42.25
2023-04-27T09:18:59.304Z,45.58
2023-04-27T09:21:27.975Z,43.85
2023-04-27T09:23:56.179Z,42.38
2023-04-27T09:26:25.667Z,41.88
2023-04-27T09:28:54.480Z,44.50
2023-04-27T09:31:21.374Z,44.63
2023-04-27T09:33:55.200Z,43.28
2023-04-27T09:36:22.540Z,42.70
2023-04-27T09:38:51.384Z,49.25
2023-04-27T09:41:18.503Z,50.13
2023-04-27T09:43:46.526Z,46.40
2023-04-27T09:46:14.507Z,49.53
2023-04-27T09:48:42.035Z,46.58
2023-04-27T09:51:08.972Z,49.20
2023-04-27T09:53:58.506Z,47.90
2023-04-27T09:56:52.055Z,48.70
2023-04-27T09:59:52.394Z,48.72
2023-04-27T10:02:24.878Z,48.08
2023-04-27T10:05:04.509Z,49.58
2023-04-27T10:07:32.447Z,50.72
2023-04-27T10:10:02.745Z,48.67
2023-04-27T10:12:36.564Z,49.50
2023-04-27T10:15:16.962Z,46.65
2023-04-27T10:17:53.561Z,46.85
2023-04-27T10:20:30.089Z,46.13
2023-04-27T10:22:57.121Z,46.67
2023-04-27T10:25:27.075Z,47.05
2023-04-27T10:27:55.966Z,46.92
2023-04-27T10:30:25.772Z,48.95
2023-04-27T10:32:54.938Z,50.95
2023-04-27T10:35:42.490Z,49.70
2023-04-27T10:38:11.032Z,49.60
2023-04-27T10:40:38.614Z,49.53
2023-04-27T10:43:14.295Z,48.45
2023-04-27T10:45:42.198Z,49.83
2023-04-27T10:48:09.409Z,48.58
2023-04-27T10:50:36.904Z,43.28
2023-04-27T10:53:06.464Z,43.80
2023-04-27T10:55:34.900Z,44.42
2023-04-27T10:58:02.412Z,43.03
2023-04-27T11:00:33.285Z,45.03
2023-04-27T11:03:16.745Z,44.50
2023-04-27T11:05:45.122Z,43.15
2023-04-27T11:08:17.346Z,45.78
2023-04-27T11:10:51.957Z,49.67
2023-04-27T11:13:23.357Z,49.13
2023-04-27T11:15:54.117Z,49.90
2023-04-27T11:18:22.749Z,48.88
2023-04-27T11:20:54.253Z,47.10
2023-04-27T11:23:36.834Z,50.50
2023-04-27T11:26:12.423Z,49.95
2023-04-27T11:28:39.132Z,48.10
2023-04-27T11:31:06.754Z,50.20
2023-04-27T11:33:33.742Z,48.80
2023-04-27T11:36:01.063Z,50.25
2023-04-27T11:38:33.812Z,49.13
2023-04-27T11:41:05.983Z,53.58
2023-04-27T11:43:33.513Z,51.65
2023-04-27T11:46:04.357Z,52.25
2023-04-27T11:48:31.826Z,51.58
2023-04-27T11:51:00.550Z,51.88
2023-04-27T11:53:35.609Z,51.28
2023-04-27T11:56:05.379Z,48.70
2023-04-27T11:58:36.548Z,48.35
2023-04-27T12:01:04.469Z,47.38
2023-04-27T12:03:32.116Z,47.38
2023-04-27T12:06:11.744Z,46.67
2023-04-27T12:08:46.024Z,47.90
2023-04-27T12:11:12.821Z,48.42
2023-04-27T12:13:39.514Z,47.65
2023-04-27T12:16:06.834Z,47.67
2023-04-27T12:18:33.697Z,47.38
2023-04-27T12:21:03.143Z,46.72
2023-04-27T12:23:30.193Z,47.28
2023-04-27T12:25:57.015Z,46.38
2023-04-27T12:28:23.715Z,48.22
2023-04-27T12:30:50.914Z,46.58
2023-04-27T12:33:17.900Z,46.25
2023-04-27T12:35:44.600Z,48.80
2023-04-27T12:38:11.289Z,48.63
2023-04-27T12:40:38.065Z,48.67
2023-04-27T12:43:05.175Z,48.17
2023-04-27T12:45:31.840Z,48.83
2023-04-27T12:48:03.819Z,50.53
2023-04-27T12:50:32.554Z,49.00
2023-04-27T12:53:00.022Z,49.97
2023-04-27T12:55:33.886Z,48.30
2023-04-27T12:58:02.014Z,49.70
2023-04-27T13:00:29.674Z,49.85
2023-04-27T13:02:57.230Z,50.40
2023-04-27T13:05:24.127Z,51.08
2023-04-27T13:07:50.831Z,52.83
2023-04-27T13:10:17.621Z,53.28
2023-04-27T13:12:44.389Z,53.05
2023-04-27T13:15:11.264Z,52.47
2023-04-27T13:17:38.114Z,54.03
2023-04-27T13:20:07.233Z,54.25
2023-04-27T13:22:34.151Z,51.63
2023-04-27T13:25:01.203Z,52.08
2023-04-27T13:27:28.468Z,52.03
2023-04-27T13:29:58.260Z,50.92
2023-04-27T13:32:25.040Z,52.33
2023-04-27T13:34:51.950Z,51.45
2023-04-27T13:37:18.940Z,54.17
2023-04-27T13:39:45.818Z,51.88
2023-04-27T13:42:12.635Z,52.35
2023-04-27T13:44:39.354Z,53.20
2023-04-27T13:47:06.751Z,52.60
2023-04-27T13:49:33.675Z,51.33
2023-04-27T13:52:00.716Z,52.40
2023-04-27T13:54:27.708Z,51.55
2023-04-27T13:56:54.474Z,51.20
2023-04-27T13:59:21.683Z,50.90
2023-04-27T14:01:48.537Z,50.25
2023-04-27T14:04:15.456Z,53.42
2023-04-27T14:06:42.312Z,53.55
2023-04-27T14:09:09.419Z,52.38
2023-04-27T14:11:48.482Z,51.17
2023-04-27T14:14:22.757Z,49.90
2023-04-27T14:16:51.225Z,50.08
2023-04-27T14:19:20.184Z,49.30
2023-04-27T14:21:48.108Z,49.10
2023-04-27T14:24:15.014Z,48.90
2023-04-27T14:26:46.392Z,50.05
2023-04-27T14:29:13.698Z,51.95
2023-04-27T14:31:40.973Z,50.75
2023-04-27T14:34:08.394Z,50.30
2023-04-27T14:36:35.760Z,50.70
2023-04-27T14:39:03.234Z,50.45
2023-04-27T14:41:30.269Z,50.40
2023-04-27T14:43:56.968Z,49.55
2023-04-27T14:46:23.814Z,52.15
2023-04-27T14:48:51.250Z,50.03
2023-04-27T14:51:18.151Z,53.28
2023-04-27T14:53:44.895Z,53.17
2023-04-27T14:56:11.994Z,53.88
2023-04-27T14:58:38.983Z,56.10
2023-04-27T15:01:06.759Z,57.00
2023-04-27T15:03:33.962Z,54.05
2023-04-27T15:06:01.836Z,55.88
2023-04-27T15:08:29.748Z,53.70
2023-04-27T15:10:59.878Z,54.25
2023-04-27T15:13:27.621Z,51.40
2023-04-27T15:15:59.058Z,51.13
2023-04-27T15:18:25.833Z,50.17
2023-04-27T15:20:56.733Z,51.17
2023-04-27T15:23:24.598Z,55.00
2023-04-27T15:25:54.796Z,53.67
2023-04-27T15:28:21.699Z,52.33
2023-04-27T15:30:49.291Z,52.72
2023-04-27T15:33:17.025Z,52.45
2023-04-27T15:35:43.862Z,50.42
2023-04-27T15:38:12.756Z,49.15
2023-04-27T15:40:39.953Z,49.35
2023-04-27T15:43:06.786Z,48.75
2023-04-27T15:45:33.695Z,50.33
2023-04-27T15:48:00.796Z,53.58
2023-04-27T15:50:27.542Z,50.40
2023-04-27T15:52:54.642Z,50.92
2023-04-27T15:55:22.160Z,51.63
2023-04-27T15:57:48.940Z,49.83
2023-04-27T16:00:16.894Z,51.03
2023-04-27T16:02:43.891Z,52.25
2023-04-27T16:05:11.115Z,50.83
2023-04-27T16:07:39.590Z,51.15
2023-04-27T16:10:07.366Z,52.90
2023-04-27T16:12:34.265Z,51.35
2023-04-27T16:15:01.076Z,51.83
2023-04-27T16:17:31.241Z,54.25
2023-04-27T16:19:58.500Z,50.47
2023-04-27T16:22:25.351Z,53.22
2023-04-27T16:24:52.083Z,54.38
2023-04-27T16:27:20.529Z,57.33
2023-04-27T16:29:47.448Z,56.10
2023-04-27T16:32:14.468Z,54.20
2023-04-27T16:34:41.471Z,58.88
2023-04-27T16:37:08.313Z,59.20
2023-04-27T16:39:35.691Z,57.75
2023-04-27T16:42:03.052Z,57.42
2023-04-27T16:44:29.794Z,58.05
2023-04-27T16:46:56.651Z,56.13
2023-04-27T16:49:23.545Z,58.50
2023-04-27T16:51:51.180Z,52.33
2023-04-27T16:54:17.960Z,56.53
2023-04-27T16:56:45.794Z,55.67
2023-04-27T16:59:12.877Z,57.97
2023-04-27T17:01:40.379Z,57.67
2023-04-27T17:04:07.425Z,58.08
2023-04-27T17:06:34.929Z,52.08
2023-04-27T17:09:02.064Z,57.38
2023-04-27T17:11:28.982Z,57.30
2023-04-27T17:13:55.673Z,60.35
2023-04-27T17:16:23.289Z,63.20
2023-04-27T17:18:50.378Z,63.25
2023-04-27T17:21:17.293Z,63.70
2023-04-27T17:23:46.462Z,60.90
2023-04-27T17:26:15.753Z,55.88
2023-04-27T17:28:42.428Z,51.95
2023-04-27T17:31:09.308Z,51.10
2023-04-27T17:33:36.034Z,51.53
2023-04-27T17:36:02.794Z,50.58
2023-04-27T17:38:29.431Z,49.42
2023-04-27T17:40:56.158Z,48.97
2023-04-27T17:43:22.876Z,49.58
2023-04-27T17:45:49.574Z,50.60
2023-04-27T17:48:16.891Z,50.25
2023-04-27T17:50:46.285Z,52.33
2023-04-27T17:53:15.206Z,50.17
2023-04-27T17:55:45.373Z,48.38
2023-04-27T17:58:12.383Z,47.90
2023-04-27T18:00:39.083Z,46.75
2023-04-27T18:03:06.381Z,46.70
2023-04-27T18:05:33.226Z,46.38
2023-04-27T18:07:59.817Z,47.20
2023-04-27T18:10:26.494Z,47.03
2023-04-27T18:12:53.145Z,45.20
2023-04-27T18:15:19.961Z,48.35
2023-04-27T18:17:46.681Z,47.17
2023-04-27T18:20:15.351Z,49.60
2023-04-27T18:22:42.056Z,49.05
2023-04-27T18:25:10.182Z,48.42
2023-04-27T18:27:39.661Z,48.70
2023-04-27T18:30:08.273Z,32.33
2023-04-27T18:32:35.421Z,33.00
2023-04-27T18:35:03.074Z,33.85
2023-04-27T18:37:29.760Z,34.08
2023-04-27T18:39:56.452Z,39.42
2023-04-27T18:42:23.446Z,35.95
2023-04-27T18:44:54.679Z,35.40
2023-04-27T18:47:21.608Z,36.30
2023-04-27T18:49:48.284Z,36.92
2023-04-27T18:52:15.264Z,36.45
2023-04-27T18:54:42.199Z,40.10
2023-04-27T18:57:08.973Z,41.22
2023-04-27T18:59:39.159Z,38.28
2023-04-27T19:02:07.262Z,35.80
2023-04-27T19:04:34.632Z,37.72
2023-04-27T19:07:02.070Z,35.35
2023-04-27T19:09:28.958Z,34.28
2023-04-27T19:12:02.695Z,46.10
2023-04-27T19:14:31.788Z,34.30
2023-04-27T19:16:58.508Z,35.83
2023-04-27T19:19:26.393Z,33.72
2023-04-27T19:21:53.279Z,34.83
2023-04-27T19:24:20.731Z,34.03
2023-04-27T19:26:47.642Z,41.33
2023-04-27T19:29:14.706Z,51.72
2023-04-27T19:32:06.290Z,44.35
2023-04-27T19:34:32.925Z,57.53
2023-04-27T19:36:59.560Z,42.10
2023-04-27T19:39:27.088Z,41.95
2023-04-27T19:41:53.756Z,36.40
2023-04-27T19:44:20.363Z,36.50
2023-04-27T19:46:47.077Z,40.70
2023-04-27T19:49:13.857Z,33.33
2023-04-27T19:51:42.291Z,38.08
2023-04-27T19:54:09.027Z,49.90
2023-04-27T19:56:37.895Z,34.30
2023-04-27T19:59:04.654Z,32.50
2023-04-27T20:01:31.761Z,31.30
2023-04-27T20:03:58.562Z,31.33
2023-04-27T20:06:25.487Z,30.98
2023-04-27T20:08:52.160Z,31.27
2023-04-27T20:11:18.881Z,31.88
2023-04-27T20:13:46.049Z,31.83
2023-04-27T20:16:12.805Z,30.95
2023-04-27T20:18:40.603Z,31.27
2023-04-27T20:21:07.652Z,30.58
2023-04-27T20:23:34.305Z,30.50
2023-04-27T20:26:00.928Z,30.00
2023-04-27T20:28:30.269Z,30.95
2023-04-27T20:30:57.198Z,30.55
2023-04-27T20:33:23.850Z,31.20
2023-04-27T20:35:54.438Z,30.75
2023-04-27T20:38:23.174Z,30.83
2023-04-27T20:40:53.468Z,31.13
2023-04-27T20:43:21.016Z,31.27
2023-04-27T20:45:47.749Z,31.50
2023-04-27T20:48:14.772Z,30.58
2023-04-27T20:50:41.392Z,31.23
2023-04-27T20:53:08.773Z,30.95
2023-04-27T20:55:35.409Z,30.52
2023-04-27T20:58:02.157Z,30.90
2023-04-27T21:00:28.796Z,32.22
2023-04-27T21:02:55.742Z,30.33
2023-04-27T21:05:22.534Z,31.02
2023-04-27T21:07:49.186Z,29.20
2023-04-27T21:10:16.135Z,30.02
2023-04-27T21:12:42.740Z,30.38
2023-04-27T21:15:09.640Z,30.73
2023-04-27T21:17:36.410Z,30.08
2023-04-27T21:20:03.259Z,31.85
2023-04-27T21:22:30.047Z,30.67
2023-04-27T21:24:56.690Z,31.60
2023-04-27T21:27:24.915Z,31.20
2023-04-27T21:29:51.568Z,30.80
2023-04-27T21:32:18.163Z,30.77
2023-04-27T21:34:44.858Z,30.85
2023-04-27T21:37:11.468Z,30.13
2023-04-27T21:39:38.119Z,30.73
2023-04-27T21:42:04.920Z,31.70
2023-04-27T21:44:31.543Z,31.92
2023-04-27T21:46:58.242Z,32.03
2023-04-27T21:49:24.856Z,30.73
2023-04-27T21:51:51.565Z,30.25
2023-04-27T21:54:19.733Z,31.38
2023-04-27T21:56:46.700Z,30.08
2023-04-27T21:59:14.920Z,30.45
2023-04-27T22:01:41.633Z,30.70
2023-04-27T22:04:09.715Z,31.33
2023-04-27T22:06:36.505Z,31.55
2023-04-27T22:09:04.727Z,30.73
2023-04-27T22:11:32.524Z,32.22
2023-04-27T22:13:59.245Z,30.05
2023-04-27T22:16:30.131Z,30.02
2023-04-27T22:18:57.366Z,30.63
2023-04-27T22:21:24.109Z,31.63
2023-04-27T22:23:50.759Z,29.98
2023-04-27T22:26:17.485Z,31.10
2023-04-27T22:28:44.152Z,30.77
2023-04-27T22:31:11.265Z,31.60
2023-04-27T22:33:38.039Z,31.63
2023-04-27T22:36:05.682Z,30.33
2023-04-27T22:38:33.689Z,30.33
2023-04-27T22:41:00.291Z,31.77
2023-04-27T22:43:26.932Z,31.15
2023-04-27T22:45:53.533Z,31.75
2023-04-27T22:48:20.476Z,31.52
2023-04-27T22:50:47.278Z,30.33
2023-04-27T22:53:14.441Z,32.45
2023-04-27T22:55:41.146Z,31.33
2023-04-27T22:58:07.820Z,30.77
2023-04-27T23:00:34.615Z,31.50
2023-04-27T23:03:01.426Z,31.15
2023-04-27T23:05:28.886Z,30.90
2023-04-27T23:07:55.556Z,32.60
2023-04-27T23:10:22.728Z,32.45
2023-04-27T23:12:50.579Z,32.28
2023-04-27T23:15:24.718Z,32.25
2023-04-27T23:17:51.415Z,31.92
2023-04-27T23:20:27.947Z,33.03
2023-04-27T23:22:56.051Z,32.65
2023-04-27T23:25:22.797Z,32.50
2023-04-27T23:27:51.313Z,32.20
2023-04-27T23:30:23.819Z,32.67
2023-04-27T23:32:50.655Z,32.67
2023-04-27T23:35:17.454Z,33.17
2023-04-27T23:37:44.220Z,33.55
2023-04-27T23:40:11.276Z,33.40
2023-04-27T23:42:37.908Z,32.90
2023-04-27T23:45:04.965Z,34.72
2023-04-27T23:47:33.643Z,33.50
2023-04-27T23:50:02.155Z,33.42
2023-04-27T23:52:29.214Z,35.33
2023-04-27T23:54:57.297Z,33.97
2023-04-27T23:57:24.040Z,33.35
2023-04-27T23:59:50.728Z,33.80
